Terminal Aerodrome Forecast
Issued by NWS State College, PA

Home | Current Version | Previous Version | Text Only | Print | Product List | Glossary On
Versions: 1 2 3 4 5 6 7 8 9 10 11 12 13 14 15 16 17 18 19 20 21 22 23 24 25 26 27 28 29 30
000
FTUS41 KCTP 181120
TAFMDT
TAF
KMDT 181120Z 1812/1912 31004KT 1/2SM FG OVC002
     FM181400 32004KT 2SM BR OVC005
     FM181600 32005KT 4SM BR OVC015
     FM181800 32010KT P6SM OVC030
     FM190000 31005KT P6SM OVC050=

USA.gov is the U.S. government's official web portal to all federal, state and local government web resources and services.